Time;durP1;ratioP1;P1;durP2;ratioP2;P2;SDS_P1;SDS_P2;PMS_P1;PMS_P2;Temp;Humidity;BMP_temperature;BMP_pressure;BME280_temperature;BME280_humidity;BME280_pressure;Samples;Min_cycle;Max_cycle;Signal;HPM_P1;HPM_P2
2022/05/14 00:00:40;;;;;;;13.03;5.60;;;12.60;67.10;;;;;;5027259;28;20412;-77
2022/05/14 00:03:07;;;;;;;11.13;5.82;;;12.50;68.60;;;;;;5020219;28;22475;-77
2022/05/14 00:05:33;;;;;;;15.63;6.20;;;12.40;69.50;;;;;;5020980;28;20801;-78
2022/05/14 00:07:58;;;;;;;11.53;5.63;;;12.40;70.00;;;;;;5016444;28;20412;-79
2022/05/14 00:10:27;;;;;;;11.83;5.67;;;12.30;71.60;;;;;;5024467;28;20880;-78
2022/05/14 00:13:05;;;;;;;16.98;6.18;;;12.20;73.60;;;;;;5036162;28;20408;-78
2022/05/14 00:15:35;;;;;;;12.75;5.72;;;12.30;74.10;;;;;;5032772;28;20457;-77
2022/05/14 00:18:02;;;;;;;13.93;6.30;;;12.30;74.30;;;;;;5012329;28;20408;-78
2022/05/14 00:20:28;;;;;;;12.18;6.20;;;12.20;75.40;;;;;;5027583;28;20399;-76
2022/05/14 00:22:54;;;;;;;8.68;5.70;;;12.20;75.80;;;;;;5026023;28;20404;-76
2022/05/14 00:25:20;;;;;;;14.77;6.57;;;12.10;76.60;;;;;;5020531;28;20902;-77
2022/05/14 00:27:47;;;;;;;18.25;6.60;;;12.00;77.70;;;;;;5021764;28;20439;-77
2022/05/14 00:30:14;;;;;;;17.83;6.70;;;11.90;80.00;;;;;;5021625;28;20404;-78
2022/05/14 00:32:40;;;;;;;13.10;6.97;;;11.90;79.10;;;;;;5021973;28;20556;-76
2022/05/14 00:35:09;;;;;;;15.10;6.82;;;12.00;79.90;;;;;;5020427;28;20396;-78
2022/05/14 00:37:35;;;;;;;17.10;6.85;;;11.90;81.10;;;;;;5021971;28;20411;-77
2022/05/14 00:40:03;;;;;;;20.92;6.90;;;11.90;80.70;;;;;;5035448;28;20414;-77
2022/05/14 00:42:31;;;;;;;21.75;7.20;;;11.90;80.70;;;;;;5032155;28;20426;-77
2022/05/14 00:44:57;;;;;;;16.75;6.72;;;11.90;81.20;;;;;;5029860;28;20406;-77
2022/05/14 00:47:23;;;;;;;12.80;6.55;;;11.90;81.90;;;;;;5024165;28;20721;-79
2022/05/14 00:49:49;;;;;;;15.70;7.00;;;12.00;80.20;;;;;;5034889;28;20387;-77
2022/05/14 00:52:18;;;;;;;17.03;6.60;;;11.90;80.40;;;;;;5025574;28;20397;-76
2022/05/14 00:55:03;;;;;;;16.83;5.93;;;12.00;80.10;;;;;;5034256;28;20934;-77
2022/05/14 00:57:34;;;;;;;13.57;6.38;;;11.90;81.00;;;;;;5017576;28;20420;-78
2022/05/14 01:00:09;;;;;;;19.92;6.78;;;12.00;78.70;;;;;;5029190;28;20435;-77
2022/05/14 01:02:35;;;;;;;13.90;6.13;;;11.90;80.60;;;;;;5017868;28;20390;-76
2022/05/14 01:05:01;;;;;;;16.03;6.73;;;11.80;81.70;;;;;;5030566;28;20462;-76
2022/05/14 01:07:28;;;;;;;16.97;7.00;;;11.70;83.70;;;;;;5030156;28;20494;-76
2022/05/14 01:09:59;;;;;;;9.57;6.40;;;11.60;84.60;;;;;;5037427;28;20433;-74
2022/05/14 01:12:28;;;;;;;14.57;6.80;;;11.50;85.40;;;;;;5030088;28;20404;-75
2022/05/14 01:14:54;;;;;;;16.17;6.88;;;11.50;87.20;;;;;;5035200;28;20430;-79
2022/05/14 01:17:20;;;;;;;17.90;7.20;;;11.60;86.10;;;;;;5024178;28;20401;-79
2022/05/14 01:19:46;;;;;;;13.57;6.60;;;11.60;84.90;;;;;;5032749;28;20500;-78
2022/05/14 01:22:53;;;;;;;15.70;6.38;;;11.70;86.60;;;;;;5021700;28;20455;-80
2022/05/14 01:28:09;;;;;;;14.60;6.20;;;11.90;80.00;;;;;;5028593;28;20412;-78
2022/05/14 01:30:44;;;;;;;16.05;6.38;;;12.00;80.70;;;;;;5043203;28;20399;-77
2022/05/14 01:33:10;;;;;;;14.47;6.30;;;12.10;76.90;;;;;;5022673;28;20437;-75
2022/05/14 01:35:39;;;;;;;10.63;5.90;;;12.20;74.50;;;;;;5036689;28;20408;-78
2022/05/14 01:38:05;;;;;;;13.10;6.23;;;12.20;75.40;;;;;;5044774;28;20448;-76
2022/05/14 01:40:31;;;;;;;18.20;6.50;;;12.10;73.70;;;;;;5035981;28;20399;-77
2022/05/14 01:42:57;;;;;;;12.57;5.80;;;12.00;74.80;;;;;;5031246;28;20475;-76
2022/05/14 01:45:23;;;;;;;11.32;5.70;;;12.00;73.60;;;;;;5026700;28;20424;-75
2022/05/14 01:47:49;;;;;;;15.55;6.00;;;12.00;73.10;;;;;;5034880;28;20817;-79
2022/05/14 01:50:15;;;;;;;13.27;5.43;;;12.00;73.00;;;;;;5027441;28;20397;-76
2022/05/14 01:52:41;;;;;;;14.00;5.20;;;12.10;69.60;;;;;;5027509;28;20417;-80
2022/05/14 01:55:06;;;;;;;15.80;5.27;;;12.20;65.30;;;;;;5017208;28;20416;-78
2022/05/14 01:57:32;;;;;;;9.38;4.68;;;12.40;59.90;;;;;;5020282;28;20416;-77
2022/05/14 01:59:58;;;;;;;11.38;5.20;;;12.50;59.20;;;;;;5028373;28;20850;-77
2022/05/14 02:02:23;;;;;;;10.32;4.55;;;12.50;57.80;;;;;;5041941;23;20815;-78
2022/05/14 02:04:49;;;;;;;12.30;4.10;;;12.60;54.50;;;;;;5032849;28;20457;-77
2022/05/14 02:07:14;;;;;;;8.53;4.70;;;12.70;52.60;;;;;;5038437;28;20395;-78
2022/05/14 02:09:40;;;;;;;18.10;4.43;;;12.70;52.70;;;;;;5038941;28;20419;-78
2022/05/14 02:12:06;;;;;;;12.40;4.10;;;12.60;51.70;;;;;;5041884;28;20766;-77
2022/05/14 02:14:32;;;;;;;7.50;3.90;;;12.60;51.10;;;;;;5049420;28;20399;-77
2022/05/14 02:16:58;;;;;;;13.35;4.07;;;12.60;50.70;;;;;;5061162;28;20463;-79
2022/05/14 02:19:24;;;;;;;9.60;3.88;;;12.70;50.00;;;;;;5042083;28;20758;-78
2022/05/14 02:21:49;;;;;;;6.10;3.88;;;12.70;50.00;;;;;;5034869;28;20519;-78
2022/05/14 02:24:16;;;;;;;10.38;4.18;;;12.70;49.80;;;;;;5034685;28;20394;-76
2022/05/14 02:26:41;;;;;;;12.07;4.18;;;12.60;49.50;;;;;;5045200;28;20391;-76
2022/05/14 02:29:07;;;;;;;11.50;3.63;;;12.70;49.20;;;;;;5049265;28;20484;-77
2022/05/14 02:31:33;;;;;;;9.43;3.70;;;12.70;49.30;;;;;;5044273;28;20424;-77
2022/05/14 02:33:59;;;;;;;8.63;4.10;;;12.60;49.40;;;;;;5035890;28;20403;-77
2022/05/14 02:36:25;;;;;;;9.07;3.78;;;12.50;49.70;;;;;;5037107;28;20405;-78
2022/05/14 02:38:51;;;;;;;10.95;3.60;;;12.40;50.30;;;;;;5036628;28;20418;-77
2022/05/14 02:41:17;;;;;;;11.30;3.60;;;12.40;49.60;;;;;;5035771;28;20940;-76
2022/05/14 02:43:43;;;;;;;11.57;3.90;;;12.40;47.20;;;;;;5034434;28;20760;-77
2022/05/14 02:46:08;;;;;;;8.77;3.92;;;12.50;46.70;;;;;;5033623;28;20411;-77
2022/05/14 02:48:35;;;;;;;8.50;3.80;;;12.50;46.60;;;;;;5032651;28;20388;-77
2022/05/14 02:51:01;;;;;;;8.85;3.40;;;12.50;47.40;;;;;;5035192;28;20873;-77
2022/05/14 02:53:27;;;;;;;11.20;3.20;;;12.50;47.20;;;;;;5035905;28;20414;-76
2022/05/14 02:55:53;;;;;;;10.45;3.92;;;12.40;47.30;;;;;;5040448;28;20764;-78
2022/05/14 03:01:04;;;;;;;8.90;4.13;;;12.30;48.50;;;;;;5041322;28;20404;-77
2022/05/14 03:03:30;;;;;;;10.40;3.65;;;12.30;48.80;;;;;;5040710;28;20495;-78
2022/05/14 03:05:55;;;;;;;13.23;4.05;;;12.30;48.70;;;;;;5047992;28;20450;-78
2022/05/14 03:08:21;;;;;;;12.23;4.10;;;12.20;49.60;;;;;;5035550;28;20450;-77
2022/05/14 03:10:46;;;;;;;12.17;3.80;;;12.20;50.10;;;;;;5033383;28;20434;-77
2022/05/14 03:13:12;;;;;;;13.68;4.05;;;12.10;50.70;;;;;;5035463;28;20398;-78
2022/05/14 03:15:37;;;;;;;11.90;3.60;;;12.00;51.70;;;;;;5036645;28;20398;-78
2022/05/14 03:18:03;;;;;;;11.95;3.65;;;12.30;49.20;;;;;;5034449;28;20397;-77
2022/05/14 03:20:29;;;;;;;16.45;3.67;;;12.20;49.80;;;;;;5033191;28;20398;-77
2022/05/14 03:22:54;;;;;;;12.93;3.50;;;12.20;49.70;;;;;;5043625;28;20438;-77
2022/05/14 03:25:20;;;;;;;10.93;3.43;;;12.20;49.00;;;;;;5034618;28;20398;-77
2022/05/14 03:27:45;;;;;;;15.63;3.80;;;12.10;49.80;;;;;;5035731;28;20408;-77
2022/05/14 03:30:11;;;;;;;9.47;3.70;;;12.00;50.00;;;;;;5033192;28;20418;-78
2022/05/14 03:32:37;;;;;;;14.05;4.55;;;11.90;51.00;;;;;;5030998;28;20421;-78
2022/05/14 03:35:05;;;;;;;12.63;4.73;;;11.90;51.60;;;;;;5034943;28;20960;-77
2022/05/14 03:37:33;;;;;;;11.10;3.90;;;11.90;50.90;;;;;;5034306;28;20948;-77
2022/05/14 03:39:58;;;;;;;13.77;3.67;;;12.10;49.60;;;;;;5033690;28;20414;-76
2022/05/14 03:42:25;;;;;;;13.00;4.00;;;12.10;49.20;;;;;;5033322;28;20413;-76
2022/05/14 03:44:51;;;;;;;13.63;4.10;;;12.10;48.50;;;;;;5033303;28;20411;-78
2022/05/14 03:47:17;;;;;;;11.93;4.07;;;12.20;47.90;;;;;;5033224;28;20394;-77
2022/05/14 03:49:43;;;;;;;12.63;3.75;;;12.00;49.40;;;;;;5034053;28;20387;-77
2022/05/14 03:52:09;;;;;;;8.93;4.05;;;11.90;50.60;;;;;;5037613;28;20416;-77
2022/05/14 03:54:35;;;;;;;12.77;4.18;;;11.90;51.20;;;;;;5032194;28;20399;-77
2022/05/14 03:57:01;;;;;;;12.57;4.13;;;12.00;49.40;;;;;;5045109;28;20549;-77
2022/05/14 03:59:27;;;;;;;14.40;4.33;;;12.00;48.80;;;;;;5047392;28;20896;-77
2022/05/14 04:01:52;;;;;;;13.07;3.80;;;12.10;48.70;;;;;;5039452;28;20490;-77
2022/05/14 04:04:18;;;;;;;16.53;4.73;;;12.10;48.60;;;;;;5032840;28;20902;-78
2022/05/14 04:06:44;;;;;;;12.07;4.47;;;12.10;48.40;;;;;;5039089;28;20434;-78
2022/05/14 04:09:09;;;;;;;8.93;4.20;;;12.20;47.70;;;;;;5033862;28;20400;-78
2022/05/14 04:11:35;;;;;;;10.65;4.30;;;12.10;48.00;;;;;;5032866;28;20895;-78
2022/05/14 04:14:00;;;;;;;9.57;3.97;;;12.30;46.80;;;;;;5035975;28;20399;-78
2022/05/14 04:16:26;;;;;;;8.23;3.53;;;12.30;46.20;;;;;;5044381;28;20446;-78
2022/05/14 04:18:52;;;;;;;10.20;4.40;;;12.20;46.40;;;;;;5040417;28;20921;-79
2022/05/14 04:21:17;;;;;;;13.23;4.97;;;12.10;47.70;;;;;;5032243;28;20748;-76
2022/05/14 04:23:43;;;;;;;13.65;4.57;;;12.20;48.10;;;;;;5030187;28;20414;-76
2022/05/14 04:26:08;;;;;;;13.88;4.80;;;12.20;48.00;;;;;;5033690;28;20786;-78
2022/05/14 04:28:34;;;;;;;9.10;3.93;;;12.30;47.10;;;;;;5039315;28;20553;-77
2022/05/14 04:31:00;;;;;;;9.70;3.80;;;12.30;45.20;;;;;;5038632;28;20457;-78
2022/05/14 04:33:27;;;;;;;12.03;4.80;;;12.50;42.80;;;;;;5041287;28;20438;-78
2022/05/14 04:35:52;;;;;;;14.70;5.10;;;12.70;42.00;;;;;;5049263;28;20436;-78
2022/05/14 04:38:18;;;;;;;14.03;4.30;;;12.60;41.60;;;;;;5053631;28;20399;-78
2022/05/14 04:40:44;;;;;;;8.20;4.05;;;12.60;41.90;;;;;;5048274;28;20448;-78
2022/05/14 04:43:12;;;;;;;9.75;3.95;;;12.60;42.10;;;;;;5041630;28;20401;-78
2022/05/14 04:45:38;;;;;;;13.18;4.47;;;12.60;41.10;;;;;;5037114;28;20849;-78
2022/05/14 04:48:05;;;;;;;10.77;3.53;;;12.70;41.10;;;;;;5038457;28;20401;-78
2022/05/14 04:50:31;;;;;;;11.55;4.07;;;12.70;40.80;;;;;;5037667;28;20866;-77
2022/05/14 04:52:57;;;;;;;12.93;3.95;;;12.70;40.10;;;;;;5036598;28;20391;-76
2022/05/14 04:55:22;;;;;;;10.93;3.77;;;12.80;39.90;;;;;;5037014;28;20395;-77
2022/05/14 04:57:48;;;;;;;8.57;3.50;;;12.80;40.20;;;;;;5036857;28;20752;-77
2022/05/14 05:00:15;;;;;;;15.27;4.10;;;12.70;40.20;;;;;;5040748;28;20939;-77
2022/05/14 05:05:26;;;;;;;6.32;3.80;;;12.80;40.10;;;;;;5046680;28;20400;-78
2022/05/14 05:07:52;;;;;;;9.05;3.53;;;12.80;39.70;;;;;;5053236;28;20391;-77
2022/05/14 05:10:18;;;;;;;12.00;4.10;;;12.80;39.60;;;;;;5054761;28;20406;-76
2022/05/14 05:12:43;;;;;;;14.10;4.50;;;12.80;39.30;;;;;;5056583;28;20408;-77
2022/05/14 05:15:10;;;;;;;12.50;3.30;;;12.80;40.40;;;;;;5059978;28;20395;-77
2022/05/14 05:17:36;;;;;;;11.18;4.00;;;12.70;40.00;;;;;;5050219;28;20390;-76
2022/05/14 05:20:02;;;;;;;11.10;3.63;;;12.80;39.80;;;;;;5052238;28;20407;-77
2022/05/14 05:22:28;;;;;;;7.97;3.72;;;12.80;39.80;;;;;;5045473;28;20418;-77
2022/05/14 05:24:54;;;;;;;14.63;4.20;;;12.60;41.70;;;;;;5043103;28;20496;-77
2022/05/14 05:27:19;;;;;;;13.43;4.03;;;13.00;39.80;;;;;;5037614;28;20408;-78
2022/05/14 05:29:45;;;;;;;11.90;4.40;;;13.20;38.80;;;;;;5039294;28;20391;-78
2022/05/14 05:32:10;;;;;;;11.97;4.07;;;13.10;38.40;;;;;;5044193;28;20832;-78
2022/05/14 05:34:36;;;;;;;13.97;4.30;;;13.00;38.70;;;;;;5040053;28;20439;-78
2022/05/14 05:37:02;;;;;;;15.70;4.27;;;12.90;38.70;;;;;;5039952;28;20437;-79
2022/05/14 05:39:27;;;;;;;11.43;4.30;;;13.00;39.00;;;;;;5041204;28;20404;-78
2022/05/14 05:41:54;;;;;;;10.87;4.20;;;13.00;40.00;;;;;;5040392;28;20446;-78
2022/05/14 05:44:19;;;;;;;10.60;4.30;;;13.00;38.90;;;;;;5044402;28;20489;-76
2022/05/14 05:46:45;;;;;;;10.65;3.88;;;13.10;39.10;;;;;;5043960;28;20474;-77
2022/05/14 05:49:11;;;;;;;11.70;3.93;;;13.20;38.10;;;;;;5038107;28;20401;-77
2022/05/14 05:51:36;;;;;;;7.25;3.15;;;13.20;38.30;;;;;;5034718;28;20452;-77
2022/05/14 05:56:46;;;;;;;10.18;3.85;;;13.40;36.70;;;;;;5058117;28;20416;-77
2022/05/14 05:59:16;;;;;;;13.55;4.10;;;13.50;36.20;;;;;;5058727;28;20394;-77
2022/05/14 06:01:43;;;;;;;12.63;3.60;;;13.60;35.10;;;;;;5041707;28;20468;-77
2022/05/14 06:04:09;;;;;;;12.57;3.83;;;13.70;34.70;;;;;;5036820;28;20397;-76
2022/05/14 06:06:36;;;;;;;12.27;3.90;;;13.70;34.70;;;;;;5038145;28;20402;-79
2022/05/14 06:09:02;;;;;;;9.05;3.80;;;13.90;33.80;;;;;;5034660;28;20407;-78
2022/05/14 06:11:30;;;;;;;11.20;3.70;;;13.90;34.00;;;;;;5038943;28;20469;-78
2022/05/14 06:13:56;;;;;;;8.95;3.65;;;13.90;33.80;;;;;;5038634;28;20421;-76
2022/05/14 06:16:22;;;;;;;8.07;3.70;;;13.90;34.00;;;;;;5038200;28;20399;-77
2022/05/14 06:18:47;;;;;;;12.00;3.72;;;13.90;34.40;;;;;;5036800;28;20457;-77
2022/05/14 06:21:13;;;;;;;10.68;4.20;;;13.90;34.90;;;;;;5036908;28;20593;-77
2022/05/14 06:23:39;;;;;;;11.15;3.70;;;14.10;34.30;;;;;;5041802;28;20413;-78
2022/05/14 06:26:04;;;;;;;8.93;4.18;;;14.20;33.70;;;;;;5040169;28;20471;-78
2022/05/14 06:28:30;;;;;;;16.10;4.37;;;14.20;33.40;;;;;;5039220;28;20434;-78
2022/05/14 06:30:57;;;;;;;13.70;3.90;;;14.20;34.20;;;;;;5041836;28;20461;-78
2022/05/14 06:33:23;;;;;;;13.48;3.97;;;14.30;34.20;;;;;;5029554;28;20461;-78
2022/05/14 06:35:48;;;;;;;14.15;4.40;;;14.40;34.20;;;;;;5032502;28;20395;-77
2022/05/14 06:38:15;;;;;;;10.83;4.87;;;14.50;33.00;;;;;;5023958;28;20910;-78
2022/05/14 06:40:41;;;;;;;13.40;4.75;;;14.50;33.50;;;;;;5032901;28;20453;-77
2022/05/14 06:43:08;;;;;;;15.98;4.65;;;14.50;33.60;;;;;;5023077;28;20496;-78
2022/05/14 06:45:34;;;;;;;13.43;4.60;;;14.60;33.20;;;;;;5030173;28;20867;-77
2022/05/14 06:48:00;;;;;;;12.38;4.45;;;14.70;33.00;;;;;;5025470;28;20401;-80
2022/05/14 06:50:28;;;;;;;15.50;5.10;;;14.70;33.00;;;;;;5029188;28;20407;-74
2022/05/14 06:52:58;;;;;;;13.30;5.00;;;14.70;33.20;;;;;;5025350;28;20834;-74
2022/05/14 06:55:26;;;;;;;11.15;5.70;;;14.70;33.20;;;;;;5029653;28;20413;-77
2022/05/14 06:57:53;;;;;;;15.30;5.50;;;14.80;33.50;;;;;;5032113;28;20407;-77
2022/05/14 07:00:19;;;;;;;16.23;5.45;;;14.80;33.60;;;;;;5033239;28;20959;-76
2022/05/14 07:02:47;;;;;;;17.75;6.03;;;14.80;33.50;;;;;;5034116;28;20752;-78
2022/05/14 07:07:58;;;;;;;17.23;6.10;;;15.10;32.20;;;;;;5037264;28;20435;-74
2022/05/14 07:10:24;;;;;;;11.48;5.45;;;15.10;32.40;;;;;;5032658;28;20401;-77
2022/05/14 07:12:49;;;;;;;17.05;6.10;;;15.20;33.20;;;;;;5030479;28;20425;-76
2022/05/14 07:15:15;;;;;;;16.95;7.00;;;15.20;32.50;;;;;;5030045;28;20473;-76
2022/05/14 07:17:41;;;;;;;24.55;6.90;;;15.30;32.60;;;;;;5035173;28;20412;-77
2022/05/14 07:20:08;;;;;;;21.60;6.70;;;15.30;32.90;;;;;;5035947;28;20465;-77
2022/05/14 07:22:33;;;;;;;17.23;7.38;;;15.20;33.00;;;;;;5033137;28;20915;-76
2022/05/14 07:24:59;;;;;;;23.93;7.07;;;15.20;32.90;;;;;;5027108;28;20469;-76
2022/05/14 07:27:25;;;;;;;17.70;6.68;;;15.30;33.00;;;;;;5023507;28;20421;-77
2022/05/14 07:29:51;;;;;;;18.55;6.88;;;15.40;34.00;;;;;;5029961;28;20411;-76
2022/05/14 07:32:19;;;;;;;23.00;8.45;;;15.60;33.30;;;;;;5026706;28;20405;-76
2022/05/14 07:34:45;;;;;;;26.35;7.90;;;15.60;33.10;;;;;;5032176;28;20395;-75
2022/05/14 07:37:33;;;;;;;20.05;8.10;;;15.80;32.30;;;;;;5030892;28;20406;-76
2022/05/14 07:40:07;;;;;;;22.45;7.75;;;15.90;32.20;;;;;;5030140;28;20864;-76
2022/05/14 07:42:35;;;;;;;17.45;7.40;;;15.80;32.00;;;;;;5029963;28;20468;-77
2022/05/14 07:45:03;;;;;;;21.58;7.97;;;15.80;32.50;;;;;;5026372;28;20659;-77
2022/05/14 07:47:30;;;;;;;19.35;8.10;;;15.80;32.60;;;;;;5026755;28;20410;-77
2022/05/14 07:49:57;;;;;;;20.98;8.20;;;16.00;31.00;;;;;;5031637;28;20407;-77
2022/05/14 07:52:23;;;;;;;23.35;8.30;;;16.10;30.80;;;;;;5036336;28;20401;-77
2022/05/14 07:54:49;;;;;;;23.83;7.80;;;16.10;31.10;;;;;;5032292;28;20767;-78
2022/05/14 07:57:16;;;;;;;22.00;7.97;;;16.10;31.70;;;;;;5031363;28;20407;-79
2022/05/14 07:59:42;;;;;;;23.83;8.05;;;16.20;30.50;;;;;;5036091;28;20425;-75
2022/05/14 08:02:27;;;;;;;23.17;7.37;;;16.40;30.50;;;;;;5046939;23;20442;-76
2022/05/14 08:04:53;;;;;;;23.17;8.57;;;16.40;30.90;;;;;;5041374;28;20399;-75
2022/05/14 08:07:19;;;;;;;24.42;8.43;;;16.50;30.80;;;;;;5037966;28;20395;-75
2022/05/14 08:09:45;;;;;;;23.30;7.50;;;16.50;30.30;;;;;;5034583;28;20414;-75
2022/05/14 08:12:11;;;;;;;20.63;7.97;;;16.70;30.50;;;;;;5033968;28;20408;-77
2022/05/14 08:14:39;;;;;;;24.05;8.20;;;16.70;30.20;;;;;;5024342;28;20961;-77
2022/05/14 08:17:09;;;;;;;17.85;7.65;;;16.90;29.80;;;;;;5024786;28;20477;-77
2022/05/14 08:19:34;;;;;;;19.15;7.70;;;16.90;29.50;;;;;;5027183;28;20494;-73
2022/05/14 08:24:45;;;;;;;23.93;8.00;;;17.00;28.80;;;;;;5034044;28;20418;-77
2022/05/14 08:27:11;;;;;;;18.77;7.33;;;17.00;28.50;;;;;;5033645;28;20423;-76
2022/05/14 08:29:38;;;;;;;25.75;8.25;;;17.00;28.30;;;;;;5032997;28;20416;-78
2022/05/14 08:32:05;;;;;;;18.58;7.20;;;17.00;29.30;;;;;;5035384;28;20883;-76
2022/05/14 08:34:31;;;;;;;16.65;6.60;;;17.10;29.00;;;;;;5029748;28;20420;-75
2022/05/14 08:36:57;;;;;;;21.83;7.55;;;17.10;29.30;;;;;;5032099;28;20876;-76
2022/05/14 08:39:23;;;;;;;20.95;7.28;;;17.20;29.60;;;;;;5026557;28;20812;-74
2022/05/14 08:41:51;;;;;;;23.13;7.50;;;17.30;28.90;;;;;;5034375;28;20399;-74
2022/05/14 08:44:21;;;;;;;19.40;7.18;;;17.50;29.00;;;;;;5062976;28;20404;-75
2022/05/14 08:46:55;;;;;;;18.15;7.20;;;17.60;28.70;;;;;;5033491;28;20387;-75
2022/05/14 08:49:33;;;;;;;26.45;7.80;;;17.60;28.20;;;;;;5049404;28;20396;-77
2022/05/14 08:52:00;;;;;;;20.50;7.47;;;17.70;28.70;;;;;;5026532;28;20430;-75
2022/05/14 08:54:27;;;;;;;20.25;7.60;;;17.70;28.50;;;;;;5034018;28;20460;-75
2022/05/14 08:57:14;;;;;;;20.23;7.03;;;17.70;27.60;;;;;;5037460;28;20391;-74
2022/05/14 08:59:49;;;;;;;19.70;7.15;;;17.90;26.90;;;;;;5030174;28;20418;-75
2022/05/14 09:02:28;;;;;;;20.33;7.70;;;17.90;27.30;;;;;;5066832;28;20514;-74
2022/05/14 09:05:05;;;;;;;16.00;7.50;;;18.00;27.30;;;;;;5036072;28;20389;-77
2022/05/14 09:07:31;;;;;;;19.55;6.65;;;18.20;26.50;;;;;;5038157;28;20393;-75
2022/05/14 09:09:58;;;;;;;21.88;7.70;;;18.20;26.10;;;;;;5032293;28;20399;-75
2022/05/14 09:12:34;;;;;;;21.50;7.28;;;18.10;26.50;;;;;;5067321;28;20483;-76
2022/05/14 09:15:12;;;;;;;23.35;7.63;;;18.40;25.50;;;;;;5029316;28;20852;-76
2022/05/14 09:17:37;;;;;;;22.00;7.43;;;18.30;25.30;;;;;;5026128;28;20401;-75
2022/05/14 09:20:04;;;;;;;19.20;6.80;;;18.30;25.90;;;;;;5026879;28;20537;-75
2022/05/14 09:22:38;;;;;;;16.77;6.40;;;18.40;25.70;;;;;;5021627;28;20437;-75
2022/05/14 09:25:31;;;;;;;31.67;8.00;;;18.50;25.60;;;;;;5026444;28;20918;-76
2022/05/14 09:28:07;;;;;;;21.00;7.00;;;18.60;25.20;;;;;;5013141;28;20389;-75
2022/05/14 09:30:42;;;;;;;20.85;6.97;;;18.80;25.10;;;;;;5023414;28;20411;-76
2022/05/14 09:33:22;;;;;;;21.60;7.07;;;18.90;24.20;;;;;;5022200;28;20443;-75
2022/05/14 09:35:58;;;;;;;20.42;7.13;;;18.80;24.90;;;;;;5030189;28;20395;-75
2022/05/14 09:38:25;;;;;;;22.38;7.57;;;18.90;24.80;;;;;;5027849;28;20470;-76
2022/05/14 09:40:52;;;;;;;17.65;7.50;;;18.80;25.20;;;;;;5061312;28;20396;-75
2022/05/14 09:43:18;;;;;;;22.40;7.63;;;19.00;24.40;;;;;;5026977;28;20423;-74
2022/05/14 09:46:10;;;;;;;19.70;7.40;;;19.10;23.50;;;;;;5030633;28;20869;-75
2022/05/14 09:48:48;;;;;;;23.35;6.25;;;19.20;24.10;;;;;;5013745;28;20400;-75
2022/05/14 09:51:30;;;;;;;22.42;6.80;;;19.20;24.80;;;;;;5027496;28;20391;-76
2022/05/14 09:54:06;;;;;;;26.55;7.40;;;19.20;24.00;;;;;;5032038;28;20895;-75
2022/05/14 09:56:43;;;;;;;24.10;7.20;;;19.20;24.80;;;;;;5039387;28;20414;-76
2022/05/14 09:59:27;;;;;;;19.38;6.63;;;19.30;24.20;;;;;;5028492;28;20387;-75
2022/05/14 10:02:11;;;;;;;21.70;6.83;;;19.30;23.40;;;;;;5028205;28;20411;-75
2022/05/14 10:05:06;;;;;;;22.77;6.68;;;19.30;22.60;;;;;;5013618;28;20487;-75
2022/05/14 10:07:41;;;;;;;21.70;6.57;;;19.40;23.30;;;;;;5022288;28;20413;-75
2022/05/14 10:10:19;;;;;;;21.73;6.80;;;19.20;23.10;;;;;;5026140;28;20448;-75
2022/05/14 10:12:50;;;;;;;20.98;6.20;;;19.30;23.90;;;;;;5029173;28;20414;-75
2022/05/14 10:15:45;;;;;;;19.25;6.50;;;19.40;22.70;;;;;;5027311;28;20883;-75
2022/05/14 10:18:50;;;;;;;17.45;5.45;;;19.50;22.80;;;;;;5027739;28;20747;-76
2022/05/14 10:21:43;;;;;;;19.02;6.20;;;19.70;22.10;;;;;;5020360;28;20494;-76
2022/05/14 10:27:10;;;;;;;20.47;6.00;;;20.00;20.80;;;;;;5025012;28;20394;-75
2022/05/14 10:29:53;;;;;;;16.05;6.50;;;20.10;19.60;;;;;;5020612;28;20490;-76
2022/05/14 10:32:20;;;;;;;23.00;6.15;;;20.00;19.40;;;;;;5028146;28;20434;-76
2022/05/14 10:34:58;;;;;;;17.45;6.50;;;20.10;19.40;;;;;;5029915;28;20399;-75
2022/05/14 10:37:33;;;;;;;20.70;7.20;;;20.20;20.50;;;;;;5060574;28;20444;-76
2022/05/14 10:40:04;;;;;;;16.90;6.72;;;20.40;20.20;;;;;;5033975;28;20911;-74
2022/05/14 10:42:59;;;;;;;19.83;5.93;;;20.60;19.70;;;;;;5060366;28;20498;-77
2022/05/14 10:45:41;;;;;;;17.88;6.10;;;20.90;19.40;;;;;;5029152;28;20819;-76
2022/05/14 10:48:25;;;;;;;18.27;5.70;;;21.10;18.10;;;;;;5056450;28;20497;-75
2022/05/14 10:50:50;;;;;;;16.95;6.30;;;21.50;18.00;;;;;;5063301;28;20730;-76
2022/05/14 10:53:17;;;;;;;15.67;6.00;;;21.80;16.70;;;;;;5063192;28;20402;-75
2022/05/14 10:55:53;;;;;;;20.98;6.60;;;21.90;16.70;;;;;;5032295;28;20403;-75
2022/05/14 10:58:41;;;;;;;20.25;6.32;;;21.90;17.10;;;;;;5032925;28;20529;-76
2022/05/14 11:01:07;;;;;;;15.18;5.45;;;22.10;16.70;;;;;;5024934;28;20779;-76
2022/05/14 11:03:36;;;;;;;20.47;5.77;;;22.40;15.70;;;;;;5014841;28;20403;-76
2022/05/14 11:06:01;;;;;;;17.25;5.60;;;22.40;16.10;;;;;;5028839;28;20417;-76
2022/05/14 11:08:32;;;;;;;25.77;5.90;;;22.40;16.00;;;;;;5060614;28;20428;-75
2022/05/14 11:11:11;;;;;;;18.30;5.15;;;22.40;14.20;;;;;;5032256;28;20432;-75
2022/05/14 11:13:37;;;;;;;14.60;5.32;;;22.10;13.90;;;;;;5026338;28;20438;-75
2022/05/14 11:16:12;;;;;;;14.13;5.57;;;21.70;14.90;;;;;;5030469;28;20445;-74
2022/05/14 11:18:50;;;;;;;14.65;4.93;;;21.70;14.90;;;;;;5032628;28;20406;-75
2022/05/14 11:21:18;;;;;;;13.63;5.10;;;22.00;14.40;;;;;;5054518;28;20952;-75
2022/05/14 11:23:52;;;;;;;16.50;4.70;;;21.60;15.40;;;;;;5023118;28;20402;-75
2022/05/14 11:26:19;;;;;;;22.35;6.30;;;21.40;15.50;;;;;;5057341;28;20409;-77
2022/05/14 11:29:17;;;;;;;18.27;5.47;;;21.80;15.70;;;;;;5028430;28;20391;-76
2022/05/14 11:32:07;;;;;;;16.85;5.10;;;22.30;15.40;;;;;;5031926;28;20407;-75
2022/05/14 11:34:33;;;;;;;15.75;5.95;;;22.90;12.50;;;;;;5031881;28;20479;-75
2022/05/14 11:37:02;;;;;;;26.05;10.27;;;22.90;12.30;;;;;;5031732;28;20403;-75
2022/05/14 11:39:30;;;;;;;17.17;5.88;;;22.60;12.20;;;;;;5027396;28;20401;-75
2022/05/14 11:42:27;;;;;;;14.83;5.93;;;22.40;13.20;;;;;;5026995;28;20446;-76
2022/05/14 11:45:11;;;;;;;15.65;5.45;;;22.20;12.50;;;;;;5022472;28;20407;-76
2022/05/14 11:47:58;;;;;;;19.95;5.60;;;22.30;13.50;;;;;;5014553;28;20422;-75
2022/05/14 11:50:29;;;;;;;14.02;6.00;;;22.70;14.10;;;;;;5023391;28;20408;-76
2022/05/14 11:53:01;;;;;;;16.90;6.10;;;22.60;13.40;;;;;;5018646;28;20412;-75
2022/05/14 11:55:41;;;;;;;17.23;5.63;;;22.50;13.90;;;;;;5017502;28;20772;-76
2022/05/14 11:58:15;;;;;;;20.25;6.50;;;22.80;13.50;;;;;;5022837;28;20405;-76
2022/05/14 12:00:42;;;;;;;13.63;5.93;;;23.20;12.80;;;;;;5022300;28;20399;-75
2022/05/14 12:03:16;;;;;;;19.95;6.10;;;23.30;11.50;;;;;;5029776;28;20395;-77
2022/05/14 12:05:51;;;;;;;14.68;5.18;;;23.70;12.40;;;;;;5022844;28;20436;-75
2022/05/14 12:08:39;;;;;;;16.20;5.70;;;23.80;10.80;;;;;;5022742;28;20889;-75
2022/05/14 12:11:46;;;;;;;15.20;5.47;;;23.60;11.60;;;;;;5027528;28;20537;-74
2022/05/14 12:14:16;;;;;;;19.13;6.30;;;23.40;11.80;;;;;;5036631;28;20474;-76
2022/05/14 12:16:49;;;;;;;18.58;5.55;;;23.00;12.80;;;;;;5023344;28;20407;-76
2022/05/14 12:19:20;;;;;;;17.85;6.15;;;23.00;12.80;;;;;;5020091;28;20643;-75
2022/05/14 12:21:58;;;;;;;15.70;5.65;;;23.50;12.30;;;;;;5017945;28;20407;-76
2022/05/14 12:24:30;;;;;;;17.40;5.73;;;23.70;11.60;;;;;;5029838;28;20395;-75
2022/05/14 12:26:56;;;;;;;13.10;5.15;;;24.00;10.60;;;;;;5015471;28;20428;-75
2022/05/14 12:29:31;;;;;;;15.30;5.20;;;23.90;10.30;;;;;;5032377;28;20941;-76
2022/05/14 12:34:46;;;;;;;13.60;5.60;;;23.90;10.40;;;;;;5022189;28;20421;-76
2022/05/14 12:37:16;;;;;;;16.70;5.15;;;23.70;10.90;;;;;;5028373;28;20399;-75
2022/05/14 12:39:43;;;;;;;15.95;5.88;;;23.70;11.00;;;;;;5022198;28;20758;-75
2022/05/14 12:42:09;;;;;;;14.48;4.75;;;23.80;11.10;;;;;;5029087;28;20418;-75
2022/05/14 12:44:41;;;;;;;14.57;5.30;;;23.50;11.20;;;;;;5015689;28;20412;-75
2022/05/14 12:47:08;;;;;;;14.90;5.47;;;23.60;10.80;;;;;;5031366;28;20399;-73
2022/05/14 12:49:42;;;;;;;18.77;5.10;;;23.30;10.70;;;;;;5062057;28;20418;-74
2022/05/14 12:52:14;;;;;;;17.83;5.60;;;23.50;11.90;;;;;;5050483;28;20444;-75
2022/05/14 12:55:05;;;;;;;16.48;5.70;;;23.80;10.50;;;;;;5033943;28;20404;-75
2022/05/14 12:57:35;;;;;;;15.37;4.70;;;24.00;10.60;;;;;;5025222;28;20426;-75
2022/05/14 13:00:00;;;;;;;21.85;8.75;;;23.70;9.30;;;;;;5030374;28;20484;-75
2022/05/14 13:02:36;;;;;;;16.15;5.78;;;23.60;9.80;;;;;;5056985;28;20474;-73
2022/05/14 13:05:37;;;;;;;16.05;7.95;;;23.60;9.50;;;;;;5027200;28;20807;-74
2022/05/14 13:08:12;;;;;;;15.70;5.10;;;23.60;9.70;;;;;;5010748;28;20434;-75
2022/05/14 13:10:39;;;;;;;13.00;5.20;;;23.70;10.20;;;;;;5051320;28;20397;-74
2022/05/14 13:13:08;;;;;;;14.93;5.90;;;23.90;10.60;;;;;;5031586;28;20458;-74